sensor_id;sensor_type;location;lat;lon;timestamp;pressure;altitude;pressure_sealevel;temperature;humidity
76448;BME280;65284;51.040;13.722;2022-12-10T00:01:10;98984.16;;;1.10;81.71
76448;BME280;65284;51.040;13.722;2022-12-10T00:03:37;98988.22;;;1.03;82.07
76448;BME280;65284;51.040;13.722;2022-12-10T00:06:06;98982.06;;;1.04;81.91
76448;BME280;65284;51.040;13.722;2022-12-10T00:08:34;98985.38;;;1.06;81.48
76448;BME280;65284;51.040;13.722;2022-12-10T00:11:03;98980.13;;;1.06;81.76
76448;BME280;65284;51.040;13.722;2022-12-10T00:13:30;98977.91;;;1.01;82.12
76448;BME280;65284;51.040;13.722;2022-12-10T00:16:01;98964.94;;;1.00;82.01
76448;BME280;65284;51.040;13.722;2022-12-10T00:18:28;98974.22;;;1.04;82.07
76448;BME280;65284;51.040;13.722;2022-12-10T00:20:55;98978.47;;;1.05;81.98
76448;BME280;65284;51.040;13.722;2022-12-10T00:23:22;98977.34;;;0.98;82.35
76448;BME280;65284;51.040;13.722;2022-12-10T00:25:49;98984.47;;;0.96;82.31
76448;BME280;65284;51.040;13.722;2022-12-10T00:28:15;98975.16;;;1.03;82.19
76448;BME280;65284;51.040;13.722;2022-12-10T00:30:42;98983.00;;;1.03;82.07
76448;BME280;65284;51.040;13.722;2022-12-10T00:33:09;98990.16;;;1.01;81.96
76448;BME280;65284;51.040;13.722;2022-12-10T00:35:36;98988.19;;;1.14;81.80
76448;BME280;65284;51.040;13.722;2022-12-10T00:38:03;98986.78;;;1.10;81.90
76448;BME280;65284;51.040;13.722;2022-12-10T00:40:29;98985.38;;;1.06;81.92
76448;BME280;65284;51.040;13.722;2022-12-10T00:42:55;98988.44;;;1.11;81.66
76448;BME280;65284;51.040;13.722;2022-12-10T00:45:22;98979.88;;;1.09;81.68
76448;BME280;65284;51.040;13.722;2022-12-10T00:47:48;98983.13;;;1.01;81.93
76448;BME280;65284;51.040;13.722;2022-12-10T00:50:15;98983.53;;;1.18;81.71
76448;BME280;65284;51.040;13.722;2022-12-10T00:52:41;98990.59;;;1.06;81.68
76448;BME280;65284;51.040;13.722;2022-12-10T00:55:07;98986.63;;;0.90;82.35
76448;BME280;65284;51.040;13.722;2022-12-10T00:57:34;98986.41;;;0.82;82.69
76448;BME280;65284;51.040;13.722;2022-12-10T01:00:00;98987.13;;;0.84;82.55
76448;BME280;65284;51.040;13.722;2022-12-10T01:02:26;98983.53;;;0.85;82.35
76448;BME280;65284;51.040;13.722;2022-12-10T01:04:53;98984.69;;;1.04;81.94
76448;BME280;65284;51.040;13.722;2022-12-10T01:07:20;98995.19;;;0.93;82.38
76448;BME280;65284;51.040;13.722;2022-12-10T01:09:46;98992.28;;;1.07;82.12
76448;BME280;65284;51.040;13.722;2022-12-10T01:12:13;98994.84;;;0.86;82.40
76448;BME280;65284;51.040;13.722;2022-12-10T01:14:39;98991.59;;;0.94;82.18
76448;BME280;65284;51.040;13.722;2022-12-10T01:17:06;98987.13;;;0.84;82.61
76448;BME280;65284;51.040;13.722;2022-12-10T01:19:33;98986.16;;;0.85;82.97
76448;BME280;65284;51.040;13.722;2022-12-10T01:22:00;98992.06;;;0.99;81.84
76448;BME280;65284;51.040;13.722;2022-12-10T01:24:28;98986.88;;;0.87;82.31
76448;BME280;65284;51.040;13.722;2022-12-10T01:26:54;98997.09;;;0.79;82.53
76448;BME280;65284;51.040;13.722;2022-12-10T01:29:22;98996.84;;;0.82;82.45
76448;BME280;65284;51.040;13.722;2022-12-10T01:31:52;98996.59;;;0.85;82.50
76448;BME280;65284;51.040;13.722;2022-12-10T01:34:20;99003.53;;;0.75;83.17
76448;BME280;65284;51.040;13.722;2022-12-10T01:36:51;99007.31;;;0.82;82.58
76448;BME280;65284;51.040;13.722;2022-12-10T01:39:19;99002.56;;;0.87;82.43
76448;BME280;65284;51.040;13.722;2022-12-10T01:41:54;99010.88;;;0.81;82.52
76448;BME280;65284;51.040;13.722;2022-12-10T01:46:50;99013.75;;;0.78;82.42
76448;BME280;65284;51.040;13.722;2022-12-10T01:51:47;99010.28;;;0.89;82.49
76448;BME280;65284;51.040;13.722;2022-12-10T01:54:21;99005.66;;;0.81;82.42
76448;BME280;65284;51.040;13.722;2022-12-10T01:56:59;98999.72;;;0.79;82.25
76448;BME280;65284;51.040;13.722;2022-12-10T01:59:28;99004.50;;;0.74;82.35
76448;BME280;65284;51.040;13.722;2022-12-10T02:02:17;99001.75;;;0.76;82.33
76448;BME280;65284;51.040;13.722;2022-12-10T02:10:47;99001.66;;;0.77;82.37
76448;BME280;65284;51.040;13.722;2022-12-10T02:13:25;99000.16;;;0.96;81.82
76448;BME280;65284;51.040;13.722;2022-12-10T02:16:03;99003.50;;;0.86;82.27
76448;BME280;65284;51.040;13.722;2022-12-10T02:18:46;98996.19;;;0.80;82.69
76448;BME280;65284;51.040;13.722;2022-12-10T02:21:24;98997.00;;;0.81;82.52
76448;BME280;65284;51.040;13.722;2022-12-10T02:23:55;98999.47;;;0.82;82.37
76448;BME280;65284;51.040;13.722;2022-12-10T02:26:30;98989.38;;;0.89;82.04
76448;BME280;65284;51.040;13.722;2022-12-10T02:29:14;98992.13;;;0.76;82.20
76448;BME280;65284;51.040;13.722;2022-12-10T02:32:17;98997.81;;;0.81;82.01
76448;BME280;65284;51.040;13.722;2022-12-10T02:34:47;98984.75;;;0.81;82.29
76448;BME280;65284;51.040;13.722;2022-12-10T02:37:18;98997.56;;;0.84;82.19
76448;BME280;65284;51.040;13.722;2022-12-10T02:39:49;98996.34;;;0.88;82.02
76448;BME280;65284;51.040;13.722;2022-12-10T02:42:17;99001.09;;;0.95;82.41
76448;BME280;65284;51.040;13.722;2022-12-10T02:44:46;99003.50;;;0.86;82.14
76448;BME280;65284;51.040;13.722;2022-12-10T02:47:16;98987.94;;;0.85;81.29
76448;BME280;65284;51.040;13.722;2022-12-10T02:49:47;98994.25;;;0.82;82.11
76448;BME280;65284;51.040;13.722;2022-12-10T02:52:17;98999.22;;;0.85;81.80
76448;BME280;65284;51.040;13.722;2022-12-10T02:54:48;98995.47;;;0.78;81.74
76448;BME280;65284;51.040;13.722;2022-12-10T03:00:21;98992.28;;;0.75;82.10
76448;BME280;65284;51.040;13.722;2022-12-10T03:11:01;99013.28;;;0.73;81.46
76448;BME280;65284;51.040;13.722;2022-12-10T03:13:37;99015.06;;;0.73;81.72
76448;BME280;65284;51.040;13.722;2022-12-10T03:16:05;99015.91;;;0.73;81.89
76448;BME280;65284;51.040;13.722;2022-12-10T03:18:34;99024.44;;;0.75;81.85
76448;BME280;65284;51.040;13.722;2022-12-10T03:21:04;99015.56;;;0.66;81.75
76448;BME280;65284;51.040;13.722;2022-12-10T03:23:31;99014.75;;;0.66;81.75
76448;BME280;65284;51.040;13.722;2022-12-10T03:26:00;99012.69;;;0.70;81.88
76448;BME280;65284;51.040;13.722;2022-12-10T03:28:27;99012.59;;;0.71;81.80
76448;BME280;65284;51.040;13.722;2022-12-10T03:30:57;99015.66;;;0.76;81.22
76448;BME280;65284;51.040;13.722;2022-12-10T03:33:24;99017.09;;;0.80;81.43
76448;BME280;65284;51.040;13.722;2022-12-10T03:35:50;99019.47;;;0.72;81.41
76448;BME280;65284;51.040;13.722;2022-12-10T03:38:17;99024.69;;;0.72;81.85
76448;BME280;65284;51.040;13.722;2022-12-10T03:40:44;99020.13;;;0.85;81.25
76448;BME280;65284;51.040;13.722;2022-12-10T03:43:13;99019.94;;;0.77;81.69
76448;BME280;65284;51.040;13.722;2022-12-10T03:45:40;99021.31;;;0.93;81.41
76448;BME280;65284;51.040;13.722;2022-12-10T03:48:07;99019.88;;;0.88;81.51
76448;BME280;65284;51.040;13.722;2022-12-10T03:50:33;99015.16;;;0.82;82.05
76448;BME280;65284;51.040;13.722;2022-12-10T03:53:00;99015.16;;;0.82;81.91
76448;BME280;65284;51.040;13.722;2022-12-10T03:55:26;99016.84;;;0.83;82.09
76448;BME280;65284;51.040;13.722;2022-12-10T03:57:52;99015.28;;;0.81;82.31
76448;BME280;65284;51.040;13.722;2022-12-10T04:00:19;99005.19;;;0.76;81.92
76448;BME280;65284;51.040;13.722;2022-12-10T04:02:45;99013.19;;;0.75;81.89
76448;BME280;65284;51.040;13.722;2022-12-10T04:05:12;99019.22;;;0.75;81.68
76448;BME280;65284;51.040;13.722;2022-12-10T04:07:38;99009.03;;;0.72;81.95
76448;BME280;65284;51.040;13.722;2022-12-10T04:10:05;99011.25;;;0.77;81.61
76448;BME280;65284;51.040;13.722;2022-12-10T04:12:32;99013.41;;;0.72;81.88
76448;BME280;65284;51.040;13.722;2022-12-10T04:14:58;99013.25;;;0.84;81.51
76448;BME280;65284;51.040;13.722;2022-12-10T04:17:43;99016.91;;;0.93;81.49
76448;BME280;65284;51.040;13.722;2022-12-10T04:20:10;99018.13;;;0.89;81.87
76448;BME280;65284;51.040;13.722;2022-12-10T04:22:56;99018.97;;;0.78;81.66
76448;BME280;65284;51.040;13.722;2022-12-10T04:25:41;99012.59;;;0.71;81.72
76448;BME280;65284;51.040;13.722;2022-12-10T04:28:26;99019.22;;;0.75;81.51
76448;BME280;65284;51.040;13.722;2022-12-10T04:30:53;99013.53;;;0.70;81.61
76448;BME280;65284;51.040;13.722;2022-12-10T04:33:19;99014.50;;;0.69;82.05
76448;BME280;65284;51.040;13.722;2022-12-10T04:35:46;99021.38;;;0.70;81.90
76448;BME280;65284;51.040;13.722;2022-12-10T04:38:12;99014.50;;;0.69;81.79
76448;BME280;65284;51.040;13.722;2022-12-10T04:40:38;99005.13;;;0.66;82.13
76448;BME280;65284;51.040;13.722;2022-12-10T04:43:05;99009.25;;;0.69;81.96
76448;BME280;65284;51.040;13.722;2022-12-10T04:45:33;99012.09;;;0.77;82.25
76448;BME280;65284;51.040;13.722;2022-12-10T04:48:00;99014.25;;;0.72;81.94
76448;BME280;65284;51.040;13.722;2022-12-10T04:50:26;99010.19;;;0.68;81.68
76448;BME280;65284;51.040;13.722;2022-12-10T04:52:53;99017.22;;;0.67;81.94
76448;BME280;65284;51.040;13.722;2022-12-10T04:55:19;99007.81;;;0.76;81.34
76448;BME280;65284;51.040;13.722;2022-12-10T04:57:45;99005.69;;;0.70;81.52
76448;BME280;65284;51.040;13.722;2022-12-10T05:00:12;99003.78;;;0.72;81.64
76448;BME280;65284;51.040;13.722;2022-12-10T05:02:38;99002.97;;;0.72;81.55
76448;BME280;65284;51.040;13.722;2022-12-10T05:05:05;98997.88;;;0.59;81.78
76448;BME280;65284;51.040;13.722;2022-12-10T05:07:32;99006.91;;;0.66;82.15
76448;BME280;65284;51.040;13.722;2022-12-10T05:09:58;99006.19;;;0.64;82.06
76448;BME280;65284;51.040;13.722;2022-12-10T05:12:25;99008.94;;;0.62;81.93
76448;BME280;65284;51.040;13.722;2022-12-10T05:14:51;99001.19;;;0.61;81.66
76448;BME280;65284;51.040;13.722;2022-12-10T05:17:17;98997.88;;;0.59;82.28
76448;BME280;65284;51.040;13.722;2022-12-10T05:19:44;99007.38;;;0.60;82.19
76448;BME280;65284;51.040;13.722;2022-12-10T05:22:10;99002.19;;;0.49;82.25
76448;BME280;65284;51.040;13.722;2022-12-10T05:24:55;99008.56;;;0.56;82.42
76448;BME280;65284;51.040;13.722;2022-12-10T05:27:21;98998.25;;;0.65;82.42
76448;BME280;65284;51.040;13.722;2022-12-10T05:29:48;99002.84;;;0.62;82.15
76448;BME280;65284;51.040;13.722;2022-12-10T05:32:14;99001.53;;;0.67;81.92
76448;BME280;65284;51.040;13.722;2022-12-10T05:34:40;99000.72;;;0.67;82.47
76448;BME280;65284;51.040;13.722;2022-12-10T05:37:07;99007.84;;;0.65;82.05
76448;BME280;65284;51.040;13.722;2022-12-10T05:39:33;99006.66;;;0.58;82.10
76448;BME280;65284;51.040;13.722;2022-12-10T05:42:00;99009.03;;;0.61;82.15
76448;BME280;65284;51.040;13.722;2022-12-10T05:44:26;99010.50;;;0.54;82.49
76448;BME280;65284;51.040;13.722;2022-12-10T05:46:52;99014.03;;;0.53;82.95
76448;BME280;65284;51.040;13.722;2022-12-10T05:49:19;99017.38;;;0.55;82.89
76448;BME280;65284;51.040;13.722;2022-12-10T05:51:45;99020.44;;;0.60;82.23
76448;BME280;65284;51.040;13.722;2022-12-10T05:54:11;99015.72;;;0.54;82.48
76448;BME280;65284;51.040;13.722;2022-12-10T05:56:38;99018.03;;;0.68;83.16
76448;BME280;65284;51.040;13.722;2022-12-10T05:59:05;99011.16;;;0.67;82.92
76448;BME280;65284;51.040;13.722;2022-12-10T06:01:38;99016.53;;;0.54;83.05
76448;BME280;65284;51.040;13.722;2022-12-10T06:04:05;99018.69;;;0.49;83.17
76448;BME280;65284;51.040;13.722;2022-12-10T06:06:34;99022.84;;;0.52;83.17
76448;BME280;65284;51.040;13.722;2022-12-10T06:09:02;99018.81;;;0.48;83.58
76448;BME280;65284;51.040;13.722;2022-12-10T06:11:29;99020.56;;;0.47;83.58
76448;BME280;65284;51.040;13.722;2022-12-10T06:13:58;99024.25;;;0.56;83.38
76448;BME280;65284;51.040;13.722;2022-12-10T06:16:25;99025.69;;;0.60;83.50
76448;BME280;65284;51.040;13.722;2022-12-10T06:18:53;99021.84;;;0.64;82.88
76448;BME280;65284;51.040;13.722;2022-12-10T06:21:19;99020.44;;;0.71;82.88
76448;BME280;65284;51.040;13.722;2022-12-10T06:23:47;99030.41;;;0.77;82.57
76448;BME280;65284;51.040;13.722;2022-12-10T06:26:16;99030.91;;;0.60;82.83
76448;BME280;65284;51.040;13.722;2022-12-10T06:28:46;99038.50;;;0.52;83.95
76448;BME280;65284;51.040;13.722;2022-12-10T06:31:13;99033.03;;;0.55;83.88
76448;BME280;65284;51.040;13.722;2022-12-10T06:33:41;99038.28;;;0.55;83.85
76448;BME280;65284;51.040;13.722;2022-12-10T06:36:09;99037.69;;;0.51;83.84
76448;BME280;65284;51.040;13.722;2022-12-10T06:38:36;99044.78;;;0.72;83.26
76448;BME280;65284;51.040;13.722;2022-12-10T06:41:11;99048.72;;;0.55;83.71
76448;BME280;65284;51.040;13.722;2022-12-10T06:43:38;99050.50;;;0.43;83.86
76448;BME280;65284;51.040;13.722;2022-12-10T06:46:10;99053.25;;;0.41;84.55
76448;BME280;65284;51.040;13.722;2022-12-10T06:48:37;99051.56;;;0.52;84.11
76448;BME280;65284;51.040;13.722;2022-12-10T06:51:05;99052.06;;;0.45;84.30
76448;BME280;65284;51.040;13.722;2022-12-10T06:53:33;99058.00;;;0.48;83.75
76448;BME280;65284;51.040;13.722;2022-12-10T06:56:01;99048.72;;;0.66;83.23
76448;BME280;65284;51.040;13.722;2022-12-10T06:58:28;99056.31;;;0.47;83.55
76448;BME280;65284;51.040;13.722;2022-12-10T07:01:08;99058.25;;;0.44;83.83
76448;BME280;65284;51.040;13.722;2022-12-10T07:03:36;99069.84;;;0.52;83.87
76448;BME280;65284;51.040;13.722;2022-12-10T07:06:06;99065.34;;;0.54;83.65
76448;BME280;65284;51.040;13.722;2022-12-10T07:08:34;99062.75;;;0.54;83.22
76448;BME280;65284;51.040;13.722;2022-12-10T07:11:06;99067.94;;;0.65;83.27
76448;BME280;65284;51.040;13.722;2022-12-10T07:13:34;99061.19;;;0.62;83.51
76448;BME280;65284;51.040;13.722;2022-12-10T07:16:01;99064.72;;;0.61;83.22
76448;BME280;65284;51.040;13.722;2022-12-10T07:18:28;99069.84;;;0.52;83.04
76448;BME280;65284;51.040;13.722;2022-12-10T07:20:54;99061.53;;;0.47;83.75
76448;BME280;65284;51.040;13.722;2022-12-10T07:23:21;99063.56;;;0.43;83.88
76448;BME280;65284;51.040;13.722;2022-12-10T07:25:48;99067.34;;;0.50;83.80
76448;BME280;65284;51.040;13.722;2022-12-10T07:28:14;99071.50;;;0.75;84.23
76448;BME280;65284;51.040;13.722;2022-12-10T07:30:41;99073.41;;;0.62;83.73
76448;BME280;65284;51.040;13.722;2022-12-10T07:33:07;99080.66;;;0.58;83.40
76448;BME280;65284;51.040;13.722;2022-12-10T07:35:34;99081.22;;;0.62;83.50
76448;BME280;65284;51.040;13.722;2022-12-10T07:38:00;99071.75;;;0.61;83.94
76448;BME280;65284;51.040;13.722;2022-12-10T07:40:27;99076.47;;;0.67;83.50
76448;BME280;65284;51.040;13.722;2022-12-10T07:42:53;99074.94;;;0.76;83.30
76448;BME280;65284;51.040;13.722;2022-12-10T07:45:19;99073.63;;;0.70;84.25
76448;BME280;65284;51.040;13.722;2022-12-10T07:47:46;99071.97;;;0.69;84.27
76448;BME280;65284;51.040;13.722;2022-12-10T07:50:12;99077.44;;;0.66;84.74
76448;BME280;65284;51.040;13.722;2022-12-10T07:52:39;99079.47;;;0.51;84.77
76448;BME280;65284;51.040;13.722;2022-12-10T07:55:05;99079.38;;;0.41;85.43
76448;BME280;65284;51.040;13.722;2022-12-10T07:57:32;99081.03;;;0.42;85.51
76448;BME280;65284;51.040;13.722;2022-12-10T07:59:58;99078.66;;;0.39;85.70
76448;BME280;65284;51.040;13.722;2022-12-10T08:02:25;99085.44;;;0.42;85.51
76448;BME280;65284;51.040;13.722;2022-12-10T08:04:51;99089.81;;;0.41;85.46
76448;BME280;65284;51.040;13.722;2022-12-10T08:07:18;99085.66;;;0.39;85.45
76448;BME280;65284;51.040;13.722;2022-12-10T08:09:44;99087.22;;;0.30;85.74
76448;BME280;65284;51.040;13.722;2022-12-10T08:12:10;99089.34;;;0.36;85.77
76448;BME280;65284;51.040;13.722;2022-12-10T08:14:37;99083.41;;;0.34;85.87
76448;BME280;65284;51.040;13.722;2022-12-10T08:17:03;99087.06;;;0.32;85.66
76448;BME280;65284;51.040;13.722;2022-12-10T08:19:30;99087.78;;;0.34;85.69
76448;BME280;65284;51.040;13.722;2022-12-10T08:21:57;99095.03;;;0.19;86.35
76448;BME280;65284;51.040;13.722;2022-12-10T08:24:24;99091.38;;;0.33;86.21
76448;BME280;65284;51.040;13.722;2022-12-10T08:26:50;99091.59;;;0.30;86.47
76448;BME280;65284;51.040;13.722;2022-12-10T08:29:16;99093.38;;;0.40;85.50
76448;BME280;65284;51.040;13.722;2022-12-10T08:31:43;99095.06;;;0.41;85.49
76448;BME280;65284;51.040;13.722;2022-12-10T08:34:15;99092.88;;;0.35;85.81
76448;BME280;65284;51.040;13.722;2022-12-10T08:36:42;99098.09;;;0.35;85.90
76448;BME280;65284;51.040;13.722;2022-12-10T08:39:09;99102.16;;;0.39;86.06
76448;BME280;65284;51.040;13.722;2022-12-10T08:41:44;99099.41;;;0.41;85.31
76448;BME280;65284;51.040;13.722;2022-12-10T08:44:11;99097.88;;;0.38;85.78
76448;BME280;65284;51.040;13.722;2022-12-10T08:46:38;99099.31;;;0.31;86.19
76448;BME280;65284;51.040;13.722;2022-12-10T08:49:05;99100.72;;;0.35;86.34
76448;BME280;65284;51.040;13.722;2022-12-10T08:51:33;99107.88;;;0.33;86.27
76448;BME280;65284;51.040;13.722;2022-12-10T08:53:59;99121.38;;;0.38;86.08
76448;BME280;65284;51.040;13.722;2022-12-10T08:56:26;99120.69;;;0.48;85.27
76448;BME280;65284;51.040;13.722;2022-12-10T08:58:52;99110.81;;;0.51;85.30
76448;BME280;65284;51.040;13.722;2022-12-10T09:01:18;99124.94;;;0.37;85.97
76448;BME280;65284;51.040;13.722;2022-12-10T09:03:45;99122.81;;;0.31;86.40
76448;BME280;65284;51.040;13.722;2022-12-10T09:06:15;99126.13;;;0.22;86.59
76448;BME280;65284;51.040;13.722;2022-12-10T09:08:41;99132.78;;;0.15;86.30
76448;BME280;65284;51.040;13.722;2022-12-10T09:13:47;99134.16;;;0.08;86.69
76448;BME280;65284;51.040;13.722;2022-12-10T09:16:14;99128.25;;;0.17;86.89
76448;BME280;65284;51.040;13.722;2022-12-10T09:18:41;99131.59;;;0.19;86.71
76448;BME280;65284;51.040;13.722;2022-12-10T09:21:09;99130.38;;;0.12;87.19
76448;BME280;65284;51.040;13.722;2022-12-10T09:23:36;99131.78;;;0.05;87.14
76448;BME280;65284;51.040;13.722;2022-12-10T09:26:09;99130.16;;;0.26;86.87
76448;BME280;65284;51.040;13.722;2022-12-10T09:28:36;99129.69;;;0.21;87.05
76448;BME280;65284;51.040;13.722;2022-12-10T09:31:04;99126.13;;;0.22;86.88
76448;BME280;65284;51.040;13.722;2022-12-10T09:33:38;99127.06;;;0.10;86.80
76448;BME280;65284;51.040;13.722;2022-12-10T09:36:07;99134.28;;;0.17;86.62
76448;BME280;65284;51.040;13.722;2022-12-10T09:38:35;99133.22;;;0.20;87.37
76448;BME280;65284;51.040;13.722;2022-12-10T09:41:04;99131.69;;;0.29;86.68
76448;BME280;65284;51.040;13.722;2022-12-10T09:44:07;99134.91;;;0.21;86.70
76448;BME280;65284;51.040;13.722;2022-12-10T09:51:39;99131.59;;;0.30;86.22
76448;BME280;65284;51.040;13.722;2022-12-10T09:54:27;99125.16;;;0.23;85.83
76448;BME280;65284;51.040;13.722;2022-12-10T09:56:56;99127.78;;;0.23;85.44
76448;BME280;65284;51.040;13.722;2022-12-10T09:59:31;99128.72;;;0.11;86.57
76448;BME280;65284;51.040;13.722;2022-12-10T10:02:12;99125.88;;;0.14;87.46
76448;BME280;65284;51.040;13.722;2022-12-10T10:04:45;99116.16;;;0.16;86.36
76448;BME280;65284;51.040;13.722;2022-12-10T10:07:26;99122.75;;;0.09;87.13
76448;BME280;65284;51.040;13.722;2022-12-10T10:10:00;99123.50;;;0.11;86.61
76448;BME280;65284;51.040;13.722;2022-12-10T10:12:30;99118.88;;;0.14;87.05
76448;BME280;65284;51.040;13.722;2022-12-10T10:14:57;99130.16;;;0.15;86.00
76448;BME280;65284;51.040;13.722;2022-12-10T10:17:33;99118.63;;;0.06;87.06
76448;BME280;65284;51.040;13.722;2022-12-10T10:20:01;99113.19;;;0.09;87.09
76448;BME280;65284;51.040;13.722;2022-12-10T10:22:28;99114.69;;;0.12;87.31
76448;BME280;65284;51.040;13.722;2022-12-10T10:24:56;99118.75;;;0.05;87.52
76448;BME280;65284;51.040;13.722;2022-12-10T10:27:26;99118.63;;;0.06;86.66
76448;BME280;65284;51.040;13.722;2022-12-10T10:29:56;99115.88;;;-0.04;87.25
76448;BME280;65284;51.040;13.722;2022-12-10T10:35:03;99115.03;;;-0.04;87.53
76448;BME280;65284;51.040;13.722;2022-12-10T10:40:02;99116.34;;;-0.10;87.52
76448;BME280;65284;51.040;13.722;2022-12-10T10:42:45;99117.28;;;-0.11;86.39
76448;BME280;65284;51.040;13.722;2022-12-10T10:48:10;99108.50;;;-0.10;87.71
76448;BME280;65284;51.040;13.722;2022-12-10T10:56:11;99113.03;;;-0.12;88.06
76448;BME280;65284;51.040;13.722;2022-12-10T11:01:24;99114.91;;;-0.14;87.61
76448;BME280;65284;51.040;13.722;2022-12-10T11:03:57;99108.25;;;-0.18;87.81
76448;BME280;65284;51.040;13.722;2022-12-10T11:06:24;99108.94;;;-0.27;88.05
76448;BME280;65284;51.040;13.722;2022-12-10T11:08:57;99111.31;;;-0.24;87.52
76448;BME280;65284;51.040;13.722;2022-12-10T11:11:34;99110.38;;;-0.23;87.22
76448;BME280;65284;51.040;13.722;2022-12-10T11:14:27;99111.81;;;-0.19;87.14
76448;BME280;65284;51.040;13.722;2022-12-10T11:19:54;99113.69;;;-0.21;87.22
76448;BME280;65284;51.040;13.722;2022-12-10T11:24:51;99108.94;;;-0.27;87.42
76448;BME280;65284;51.040;13.722;2022-12-10T11:30:12;99117.94;;;-0.31;87.80
76448;BME280;65284;51.040;13.722;2022-12-10T11:32:52;99126.28;;;-0.26;88.33
76448;BME280;65284;51.040;13.722;2022-12-10T11:51:46;99123.19;;;-0.20;87.47
76448;BME280;65284;51.040;13.722;2022-12-10T11:54:38;99119.13;;;-0.24;87.64
76448;BME280;65284;51.040;13.722;2022-12-10T12:00:25;99117.25;;;-0.22;87.11
76448;BME280;65284;51.040;13.722;2022-12-10T12:03:16;99124.13;;;-0.21;86.59
76448;BME280;65284;51.040;13.722;2022-12-10T12:11:25;99125.44;;;-0.27;87.03
76448;BME280;65284;51.040;13.722;2022-12-10T12:17:19;99109.16;;;-0.30;87.86
76448;BME280;65284;51.040;13.722;2022-12-10T12:19:54;99121.06;;;-0.26;88.23
76448;BME280;65284;51.040;13.722;2022-12-10T12:22:29;99121.75;;;-0.24;87.78
76448;BME280;65284;51.040;13.722;2022-12-10T12:25:02;99120.59;;;-0.20;87.62
76448;BME280;65284;51.040;13.722;2022-12-10T12:27:38;99125.13;;;-0.11;87.50
76448;BME280;65284;51.040;13.722;2022-12-10T12:30:14;99125.13;;;-0.11;86.99
76448;BME280;65284;51.040;13.722;2022-12-10T12:35:43;99113.69;;;-0.21;87.08
76448;BME280;65284;51.040;13.722;2022-12-10T12:41:05;99114.91;;;-0.14;86.04
76448;BME280;65284;51.040;13.722;2022-12-10T12:46:05;99116.06;;;-0.29;87.65
76448;BME280;65284;51.040;13.722;2022-12-10T12:48:44;99116.06;;;-0.29;87.57
76448;BME280;65284;51.040;13.722;2022-12-10T12:51:19;99114.38;;;-0.30;86.90
76448;BME280;65284;51.040;13.722;2022-12-10T12:53:48;99113.31;;;-0.28;87.39
76448;BME280;65284;51.040;13.722;2022-12-10T12:56:45;99110.72;;;-0.28;87.77
76448;BME280;65284;51.040;13.722;2022-12-10T12:59:55;99106.44;;;-0.29;87.71
76448;BME280;65284;51.040;13.722;2022-12-10T13:05:13;99117.72;;;-0.28;87.50
76448;BME280;65284;51.040;13.722;2022-12-10T13:07:40;99117.72;;;-0.28;87.35
76448;BME280;65284;51.040;13.722;2022-12-10T13:10:22;99118.78;;;-0.31;87.67
76448;BME280;65284;51.040;13.722;2022-12-10T13:13:04;99113.91;;;-0.24;87.39
76448;BME280;65284;51.040;13.722;2022-12-10T13:18:02;99135.53;;;-0.22;86.63
76448;BME280;65284;51.040;13.722;2022-12-10T13:36:25;99142.38;;;-0.32;86.88
76448;BME280;65284;51.040;13.722;2022-12-10T13:41:34;99147.47;;;-0.31;87.32
76448;BME280;65284;51.040;13.722;2022-12-10T13:44:32;99152.53;;;-0.40;87.51
76448;BME280;65284;51.040;13.722;2022-12-10T13:49:56;99149.81;;;-0.39;87.86
76448;BME280;65284;51.040;13.722;2022-12-10T14:00:31;99159.56;;;-0.30;87.58
76448;BME280;65284;51.040;13.722;2022-12-10T14:03:28;99169.16;;;-0.30;88.10
76448;BME280;65284;51.040;13.722;2022-12-10T14:08:34;99160.72;;;-0.34;88.23
76448;BME280;65284;51.040;13.722;2022-12-10T14:11:04;99162.75;;;-0.37;88.21
76448;BME280;65284;51.040;13.722;2022-12-10T14:13:39;99164.44;;;-0.25;87.87
76448;BME280;65284;51.040;13.722;2022-12-10T14:16:11;99168.00;;;-0.26;88.10
76448;BME280;65284;51.040;13.722;2022-12-10T14:18:38;99164.91;;;-0.31;87.89
76448;BME280;65284;51.040;13.722;2022-12-10T14:21:07;99173.69;;;-0.32;87.65
76448;BME280;65284;51.040;13.722;2022-12-10T14:23:44;99172.00;;;-0.33;87.92
76448;BME280;65284;51.040;13.722;2022-12-10T14:28:46;99171.72;;;-0.41;88.07
76448;BME280;65284;51.040;13.722;2022-12-10T14:31:20;99178.34;;;-0.49;88.29
76448;BME280;65284;51.040;13.722;2022-12-10T14:33:49;99178.44;;;-0.26;88.41
76448;BME280;65284;51.040;13.722;2022-12-10T14:36:22;99178.44;;;-0.26;87.45
76448;BME280;65284;51.040;13.722;2022-12-10T14:38:50;99185.91;;;-0.21;86.88
76448;BME280;65284;51.040;13.722;2022-12-10T14:41:22;99182.72;;;-0.25;86.62
76448;BME280;65284;51.040;13.722;2022-12-10T14:43:50;99185.31;;;-0.25;86.96
76448;BME280;65284;51.040;13.722;2022-12-10T14:46:20;99191.28;;;-0.23;87.21
76448;BME280;65284;51.040;13.722;2022-12-10T14:48:53;99195.75;;;-0.25;86.88
76448;BME280;65284;51.040;13.722;2022-12-10T14:51:26;99191.81;;;-0.31;86.68
76448;BME280;65284;51.040;13.722;2022-12-10T14:53:53;99192.94;;;-0.46;86.89
76448;BME280;65284;51.040;13.722;2022-12-10T14:56:25;99185.28;;;-0.36;87.48
76448;BME280;65284;51.040;13.722;2022-12-10T15:01:31;99192.59;;;-0.41;86.77
76448;BME280;65284;51.040;13.722;2022-12-10T15:04:00;99200.22;;;-0.38;86.58
76448;BME280;65284;51.040;13.722;2022-12-10T15:06:27;99202.09;;;-0.40;87.07
76448;BME280;65284;51.040;13.722;2022-12-10T15:11:26;99194.28;;;-0.40;87.42
76448;BME280;65284;51.040;13.722;2022-12-10T15:13:58;99191.88;;;-0.43;86.97
76448;BME280;65284;51.040;13.722;2022-12-10T15:16:37;99192.81;;;-0.44;88.06
76448;BME280;65284;51.040;13.722;2022-12-10T15:21:50;99196.31;;;-0.57;87.86
76448;BME280;65284;51.040;13.722;2022-12-10T15:24:21;99192.59;;;-0.41;87.56
76448;BME280;65284;51.040;13.722;2022-12-10T15:26:49;99194.00;;;-0.49;87.19
76448;BME280;65284;51.040;13.722;2022-12-10T15:31:56;99188.38;;;-0.55;87.46
76448;BME280;65284;51.040;13.722;2022-12-10T15:34:26;99202.53;;;-0.47;87.58